Navassa, North Carolina
Current Conditions -  °F | °C
As of 5:53 PM on Tuesday 21 Oct 2014 (Local Time) from KILM Reporting Station
Scattered Clouds Scattered Clouds  
Wind Chill: 72°   Ceiling: Unl
Heat Index: 72°   Visibility: 10mi
Dew Point: 55°   Wind: 7mph
Humidity: 55%   Direction: 230°SW
Pressure: 29.83"   Gusts: NA
Location:  34.2757°N, 78.1004°W
Report Text: KILM 212153Z 23006KT 10SM SCT060 22/13 A2983 RMK AO2 SLP102 T02220128
Loading
Personal Weather Stations






























Interactive Weather Map
Tropical Storm Tracking
New forecast layout! Learn more

10-Day Weather Forecast

Advertisements
Track Severe Weather on mobile